Loos, Canada
Current Conditions -  °F | °C
As of 11:00 AM on Thursday 30 Oct 2014 (Local Time) from CYXS Reporting Station
Clear Clear  
Wind Chill: 44°   Ceiling: Unl
Heat Index: 48°   Visibility: 9mi
Dew Point: 41°   Wind: 9mph
Humidity: 76%   Direction: 180°S
Pressure: 29.78"   Gusts: NA
Location:  53.6°N, 120.72°W
Report Text: CYXS 301800Z AUTO 18008KT 160V230 9SM CLR 09/05 A2978 RMK SLP105
Loading
Personal Weather Stations






























Interactive Weather Map
Tropical Storm Tracking
New forecast layout! Learn more

10-Day Weather Forecast

Advertisements
Track Severe Weather on mobile